sensor_id;sensor_type;location;lat;lon;timestamp;pressure;altitude;pressure_sealevel;temperature;humidity
74675;BME280;63200;48.810;12.352;2022-10-22T00:01:22;97266.25;;;10.78;78.32
74675;BME280;63200;48.810;12.352;2022-10-22T00:03:48;97241.16;;;10.67;78.26
74675;BME280;63200;48.810;12.352;2022-10-22T00:06:14;97267.59;;;10.80;78.37
74675;BME280;63200;48.810;12.352;2022-10-22T00:08:39;97264.88;;;10.80;78.52
74675;BME280;63200;48.810;12.352;2022-10-22T00:11:15;97254.91;;;10.76;78.21
74675;BME280;63200;48.810;12.352;2022-10-22T00:13:41;97247.50;;;10.81;78.21
74675;BME280;63200;48.810;12.352;2022-10-22T00:16:07;97260.28;;;10.81;78.52
74675;BME280;63200;48.810;12.352;2022-10-22T00:18:33;97240.25;;;10.96;77.65
74675;BME280;63200;48.810;12.352;2022-10-22T00:20:58;97244.72;;;10.87;77.61
74675;BME280;63200;48.810;12.352;2022-10-22T00:23:23;97238.69;;;10.90;77.93
74675;BME280;63200;48.810;12.352;2022-10-22T00:25:49;97246.09;;;11.03;77.07
74675;BME280;63200;48.810;12.352;2022-10-22T00:28:14;97256.16;;;10.83;77.98
74675;BME280;63200;48.810;12.352;2022-10-22T00:30:39;97210.94;;;10.74;77.75
74675;BME280;63200;48.810;12.352;2022-10-22T00:33:05;97221.34;;;10.66;78.15
74675;BME280;63200;48.810;12.352;2022-10-22T00:35:31;97248.03;;;10.83;78.43
74675;BME280;63200;48.810;12.352;2022-10-22T00:37:56;97250.13;;;10.87;78.39
74675;BME280;63200;48.810;12.352;2022-10-22T00:40:22;97251.00;;;10.82;78.54
74675;BME280;63200;48.810;12.352;2022-10-22T00:42:47;97248.59;;;10.80;79.24
74675;BME280;63200;48.810;12.352;2022-10-22T00:47:49;97189.34;;;10.63;78.66
74675;BME280;63200;48.810;12.352;2022-10-22T00:53:03;97230.59;;;10.84;78.74
74675;BME280;63200;48.810;12.352;2022-10-22T00:55:31;97228.91;;;10.89;78.75
74675;BME280;63200;48.810;12.352;2022-10-22T00:57:57;97225.09;;;10.90;78.79
74675;BME280;63200;48.810;12.352;2022-10-22T01:00:24;97217.47;;;10.92;78.79
74675;BME280;63200;48.810;12.352;2022-10-22T01:02:50;97213.94;;;10.91;78.59
74675;BME280;63200;48.810;12.352;2022-10-22T01:05:16;97189.50;;;10.72;78.42
74675;BME280;63200;48.810;12.352;2022-10-22T01:07:48;97206.16;;;10.84;78.73
74675;BME280;63200;48.810;12.352;2022-10-22T01:10:23;97204.84;;;10.82;78.39
74675;BME280;63200;48.810;12.352;2022-10-22T01:15:28;97218.41;;;10.82;78.45
74675;BME280;63200;48.810;12.352;2022-10-22T01:18:03;97215.94;;;10.86;78.78
74675;BME280;63200;48.810;12.352;2022-10-22T01:21:08;97205.88;;;10.86;78.36
74675;BME280;63200;48.810;12.352;2022-10-22T01:23:54;97208.31;;;10.88;78.47
74675;BME280;63200;48.810;12.352;2022-10-22T01:29:21;97208.00;;;10.89;78.51
74675;BME280;63200;48.810;12.352;2022-10-22T01:31:59;97219.91;;;10.93;78.70
74675;BME280;63200;48.810;12.352;2022-10-22T01:34:27;97226.72;;;10.91;78.56
74675;BME280;63200;48.810;12.352;2022-10-22T01:36:54;97234.88;;;10.91;78.81
74675;BME280;63200;48.810;12.352;2022-10-22T01:39:21;97240.31;;;10.91;79.12
74675;BME280;63200;48.810;12.352;2022-10-22T01:41:47;97244.94;;;10.90;79.40
74675;BME280;63200;48.810;12.352;2022-10-22T01:44:24;97237.81;;;10.94;79.28
74675;BME280;63200;48.810;12.352;2022-10-22T01:47:16;97231.88;;;10.92;79.12
74675;BME280;63200;48.810;12.352;2022-10-22T01:58:00;97247.25;;;10.78;79.80
74675;BME280;63200;48.810;12.352;2022-10-22T02:00:27;97255.47;;;10.73;80.38
74675;BME280;63200;48.810;12.352;2022-10-22T02:03:05;97268.00;;;10.69;80.60
74675;BME280;63200;48.810;12.352;2022-10-22T02:05:38;97263.34;;;10.74;80.62
74675;BME280;63200;48.810;12.352;2022-10-22T02:10:32;97259.97;;;10.82;80.11
74675;BME280;63200;48.810;12.352;2022-10-22T02:13:02;97265.59;;;10.86;80.12
74675;BME280;63200;48.810;12.352;2022-10-22T02:15:31;97258.06;;;10.83;80.20
74675;BME280;63200;48.810;12.352;2022-10-22T02:17:59;97225.97;;;10.66;80.22
74675;BME280;63200;48.810;12.352;2022-10-22T02:20:28;97249.53;;;10.90;80.49
74675;BME280;63200;48.810;12.352;2022-10-22T02:22:55;97242.44;;;10.94;80.53
74675;BME280;63200;48.810;12.352;2022-10-22T02:25:23;97234.28;;;10.94;80.09
74675;BME280;63200;48.810;12.352;2022-10-22T02:30:23;97243.69;;;11.02;80.21
74675;BME280;63200;48.810;12.352;2022-10-22T02:33:02;97237.69;;;11.05;79.89
74675;BME280;63200;48.810;12.352;2022-10-22T02:35:29;97245.00;;;11.04;80.00
74675;BME280;63200;48.810;12.352;2022-10-22T02:37:56;97246.34;;;11.07;80.07
74675;BME280;63200;48.810;12.352;2022-10-22T02:40:23;97245.00;;;11.04;79.92
74675;BME280;63200;48.810;12.352;2022-10-22T02:42:50;97258.00;;;11.07;80.03
74675;BME280;63200;48.810;12.352;2022-10-22T02:45:16;97263.97;;;11.09;80.35
74675;BME280;63200;48.810;12.352;2022-10-22T02:47:42;97267.47;;;11.10;80.12
74675;BME280;63200;48.810;12.352;2022-10-22T02:50:08;97267.75;;;11.08;80.30
74675;BME280;63200;48.810;12.352;2022-10-22T02:52:33;97278.44;;;11.05;80.60
74675;BME280;63200;48.810;12.352;2022-10-22T02:54:59;97279.81;;;11.02;80.45
74675;BME280;63200;48.810;12.352;2022-10-22T02:57:24;97289.31;;;11.05;80.69
74675;BME280;63200;48.810;12.352;2022-10-22T02:59:49;97303.69;;;11.05;80.43
74675;BME280;63200;48.810;12.352;2022-10-22T03:02:15;97299.28;;;11.09;80.72
74675;BME280;63200;48.810;12.352;2022-10-22T03:04:40;97296.50;;;11.14;80.62
74675;BME280;63200;48.810;12.352;2022-10-22T03:07:06;97284.91;;;11.09;80.50
74675;BME280;63200;48.810;12.352;2022-10-22T03:09:31;97301.63;;;11.16;80.61
74675;BME280;63200;48.810;12.352;2022-10-22T03:11:56;97267.16;;;10.92;80.39
74675;BME280;63200;48.810;12.352;2022-10-22T03:14:22;97276.81;;;11.04;80.58
74675;BME280;63200;48.810;12.352;2022-10-22T03:16:47;97293.19;;;11.17;80.54
74675;BME280;63200;48.810;12.352;2022-10-22T03:19:12;97294.28;;;11.16;80.58
74675;BME280;63200;48.810;12.352;2022-10-22T03:24:12;97293.72;;;11.20;80.37
74675;BME280;63200;48.810;12.352;2022-10-22T03:26:40;97283.13;;;11.18;80.07
74675;BME280;63200;48.810;12.352;2022-10-22T03:29:08;97290.75;;;11.16;80.09
74675;BME280;63200;48.810;12.352;2022-10-22T03:31:34;97277.97;;;11.16;80.33
74675;BME280;63200;48.810;12.352;2022-10-22T03:33:59;97284.53;;;11.15;80.52
74675;BME280;63200;48.810;12.352;2022-10-22T03:36:24;97282.91;;;11.14;80.38
74675;BME280;63200;48.810;12.352;2022-10-22T03:38:50;97268.53;;;11.14;80.47
74675;BME280;63200;48.810;12.352;2022-10-22T03:41:15;97245.53;;;11.06;80.28
74675;BME280;63200;48.810;12.352;2022-10-22T03:43:41;97226.38;;;10.97;80.36
74675;BME280;63200;48.810;12.352;2022-10-22T03:46:06;97246.91;;;11.23;80.54
74675;BME280;63200;48.810;12.352;2022-10-22T03:48:31;97250.66;;;11.27;80.47
74675;BME280;63200;48.810;12.352;2022-10-22T03:50:57;97262.84;;;11.29;80.27
74675;BME280;63200;48.810;12.352;2022-10-22T03:53:22;97246.31;;;11.26;80.38
74675;BME280;63200;48.810;12.352;2022-10-22T03:55:48;97253.84;;;11.34;80.54
74675;BME280;63200;48.810;12.352;2022-10-22T03:58:13;97255.44;;;11.35;80.67
74675;BME280;63200;48.810;12.352;2022-10-22T04:00:39;97240.34;;;11.43;80.84
74675;BME280;63200;48.810;12.352;2022-10-22T04:03:04;97250.13;;;11.44;80.55
74675;BME280;63200;48.810;12.352;2022-10-22T04:05:31;97279.16;;;11.48;80.95
74675;BME280;63200;48.810;12.352;2022-10-22T04:07:56;97283.28;;;11.27;81.01
74675;BME280;63200;48.810;12.352;2022-10-22T04:10:22;97304.41;;;11.11;81.28
74675;BME280;63200;48.810;12.352;2022-10-22T04:12:47;97324.41;;;11.20;81.55
74675;BME280;63200;48.810;12.352;2022-10-22T04:15:13;97295.22;;;11.07;81.71
74675;BME280;63200;48.810;12.352;2022-10-22T04:17:38;97326.97;;;11.30;81.68
74675;BME280;63200;48.810;12.352;2022-10-22T04:20:04;97277.09;;;11.02;81.56
74675;BME280;63200;48.810;12.352;2022-10-22T04:22:33;97328.47;;;11.42;81.63
74675;BME280;63200;48.810;12.352;2022-10-22T04:24:58;97321.09;;;11.42;81.73
74675;BME280;63200;48.810;12.352;2022-10-22T04:27:23;97326.53;;;11.42;81.54
74675;BME280;63200;48.810;12.352;2022-10-22T04:29:49;97319.72;;;11.45;81.55
74675;BME280;63200;48.810;12.352;2022-10-22T04:32:14;97319.13;;;11.48;81.57
74675;BME280;63200;48.810;12.352;2022-10-22T04:34:39;97317.78;;;11.45;81.48
74675;BME280;63200;48.810;12.352;2022-10-22T04:37:05;97326.47;;;11.47;81.54
74675;BME280;63200;48.810;12.352;2022-10-22T04:39:30;97307.00;;;11.40;81.32
74675;BME280;63200;48.810;12.352;2022-10-22T04:41:55;97331.16;;;11.61;81.36
74675;BME280;63200;48.810;12.352;2022-10-22T04:44:21;97283.66;;;11.39;81.26
74675;BME280;63200;48.810;12.352;2022-10-22T04:46:46;97309.84;;;11.68;81.05
74675;BME280;63200;48.810;12.352;2022-10-22T04:49:12;97309.56;;;11.70;80.99
74675;BME280;63200;48.810;12.352;2022-10-22T04:51:37;97290.16;;;11.57;80.92
74675;BME280;63200;48.810;12.352;2022-10-22T04:54:03;97306.78;;;11.75;81.00
74675;BME280;63200;48.810;12.352;2022-10-22T04:56:29;97307.56;;;11.75;81.12
74675;BME280;63200;48.810;12.352;2022-10-22T04:59:03;97324.13;;;11.79;80.97
74675;BME280;63200;48.810;12.352;2022-10-22T05:01:31;97324.81;;;11.84;81.10
74675;BME280;63200;48.810;12.352;2022-10-22T05:03:59;97310.31;;;11.89;81.13
74675;BME280;63200;48.810;12.352;2022-10-22T05:06:25;97293.19;;;11.75;81.21
74675;BME280;63200;48.810;12.352;2022-10-22T05:08:55;97287.59;;;11.66;81.05
74675;BME280;63200;48.810;12.352;2022-10-22T05:11:24;97282.16;;;11.66;80.95
74675;BME280;63200;48.810;12.352;2022-10-22T05:13:52;97324.09;;;11.98;81.20
74675;BME280;63200;48.810;12.352;2022-10-22T05:16:19;97329.47;;;12.03;81.14
74675;BME280;63200;48.810;12.352;2022-10-22T05:18:44;97316.34;;;12.05;81.33
74675;BME280;63200;48.810;12.352;2022-10-22T05:21:13;97314.63;;;11.95;81.13
74675;BME280;63200;48.810;12.352;2022-10-22T05:23:39;97290.88;;;11.82;81.15
74675;BME280;63200;48.810;12.352;2022-10-22T05:26:06;97350.25;;;12.13;81.46
74675;BME280;63200;48.810;12.352;2022-10-22T05:28:32;97321.06;;;11.99;81.77
74675;BME280;63200;48.810;12.352;2022-10-22T05:31:00;97347.44;;;12.18;81.43
74675;BME280;63200;48.810;12.352;2022-10-22T05:33:26;97331.66;;;12.01;81.52
74675;BME280;63200;48.810;12.352;2022-10-22T05:35:52;97356.34;;;12.24;81.66
74675;BME280;63200;48.810;12.352;2022-10-22T05:38:18;97373.47;;;12.24;82.29
74675;BME280;63200;48.810;12.352;2022-10-22T05:40:44;97377.06;;;12.20;82.81
74675;BME280;63200;48.810;12.352;2022-10-22T05:43:10;97387.69;;;12.21;83.12
74675;BME280;63200;48.810;12.352;2022-10-22T05:45:37;97365.69;;;12.18;83.28
74675;BME280;63200;48.810;12.352;2022-10-22T05:48:03;97377.03;;;12.39;82.94
74675;BME280;63200;48.810;12.352;2022-10-22T05:50:29;97377.34;;;12.37;82.65
74675;BME280;63200;48.810;12.352;2022-10-22T05:52:54;97389.75;;;12.43;82.58
74675;BME280;63200;48.810;12.352;2022-10-22T05:55:19;97391.44;;;12.39;82.38
74675;BME280;63200;48.810;12.352;2022-10-22T05:57:45;97384.91;;;12.40;82.34
74675;BME280;63200;48.810;12.352;2022-10-22T06:00:10;97376.72;;;12.40;82.46
74675;BME280;63200;48.810;12.352;2022-10-22T06:02:36;97376.13;;;12.43;82.24
74675;BME280;63200;48.810;12.352;2022-10-22T06:05:01;97373.09;;;12.31;82.43
74675;BME280;63200;48.810;12.352;2022-10-22T06:07:27;97365.78;;;12.26;82.07
74675;BME280;63200;48.810;12.352;2022-10-22T06:09:52;97373.41;;;12.43;82.41
74675;BME280;63200;48.810;12.352;2022-10-22T06:12:18;97378.66;;;12.40;82.45
74675;BME280;63200;48.810;12.352;2022-10-22T06:14:43;97389.03;;;12.38;82.22
74675;BME280;63200;48.810;12.352;2022-10-22T06:17:10;97395.88;;;12.35;82.05
74675;BME280;63200;48.810;12.352;2022-10-22T06:19:36;97376.28;;;12.19;82.00
74675;BME280;63200;48.810;12.352;2022-10-22T06:22:02;97410.50;;;12.39;81.88
74675;BME280;63200;48.810;12.352;2022-10-22T06:24:28;97408.56;;;12.26;81.50
74675;BME280;63200;48.810;12.352;2022-10-22T06:26:53;97410.88;;;12.32;81.54
74675;BME280;63200;48.810;12.352;2022-10-22T06:29:19;97391.34;;;12.11;81.19
74675;BME280;63200;48.810;12.352;2022-10-22T06:31:44;97429.34;;;12.36;81.01
74675;BME280;63200;48.810;12.352;2022-10-22T06:34:11;97437.00;;;12.33;81.01
74675;BME280;63200;48.810;12.352;2022-10-22T06:36:37;97437.88;;;12.29;81.13
74675;BME280;63200;48.810;12.352;2022-10-22T06:39:05;97397.84;;;11.96;81.20
74675;BME280;63200;48.810;12.352;2022-10-22T06:41:30;97441.22;;;12.26;81.05
74675;BME280;63200;48.810;12.352;2022-10-22T06:43:56;97454.22;;;12.29;80.93
74675;BME280;63200;48.810;12.352;2022-10-22T06:46:23;97454.75;;;12.31;80.67
74675;BME280;63200;48.810;12.352;2022-10-22T06:48:50;97462.91;;;12.31;80.63
74675;BME280;63200;48.810;12.352;2022-10-22T06:51:16;97456.66;;;12.30;80.61
74675;BME280;63200;48.810;12.352;2022-10-22T06:53:42;97457.38;;;12.36;80.36
74675;BME280;63200;48.810;12.352;2022-10-22T06:56:09;97452.44;;;12.38;80.31
74675;BME280;63200;48.810;12.352;2022-10-22T06:58:35;97427.09;;;12.24;80.61
74675;BME280;63200;48.810;12.352;2022-10-22T07:01:08;97450.25;;;12.40;80.58
74675;BME280;63200;48.810;12.352;2022-10-22T07:03:34;97458.72;;;12.39;80.81
74675;BME280;63200;48.810;12.352;2022-10-22T07:06:01;97468.34;;;12.31;80.61
74675;BME280;63200;48.810;12.352;2022-10-22T07:08:27;97489.47;;;12.39;80.62
74675;BME280;63200;48.810;12.352;2022-10-22T07:10:52;97452.84;;;12.12;80.41
74675;BME280;63200;48.810;12.352;2022-10-22T07:13:17;97494.84;;;12.25;80.59
74675;BME280;63200;48.810;12.352;2022-10-22T07:15:43;97471.19;;;12.07;80.72
74675;BME280;63200;48.810;12.352;2022-10-22T07:18:08;97502.94;;;12.30;80.60
74675;BME280;63200;48.810;12.352;2022-10-22T07:20:33;97507.78;;;12.33;80.56
74675;BME280;63200;48.810;12.352;2022-10-22T07:22:59;97511.84;;;12.36;80.61
74675;BME280;63200;48.810;12.352;2022-10-22T07:25:24;97528.66;;;12.38;80.53
74675;BME280;63200;48.810;12.352;2022-10-22T07:27:49;97536.56;;;12.40;80.87
74675;BME280;63200;48.810;12.352;2022-10-22T07:30:16;97531.91;;;12.40;80.84
74675;BME280;63200;48.810;12.352;2022-10-22T07:32:41;97526.09;;;12.47;80.76
74675;BME280;63200;48.810;12.352;2022-10-22T07:35:07;97520.59;;;12.52;80.74
74675;BME280;63200;48.810;12.352;2022-10-22T07:37:32;97511.25;;;12.58;80.41
74675;BME280;63200;48.810;12.352;2022-10-22T07:39:58;97537.63;;;12.77;79.88
74675;BME280;63200;48.810;12.352;2022-10-22T07:42:23;97541.75;;;12.74;79.95
74675;BME280;63200;48.810;12.352;2022-10-22T07:44:48;97541.22;;;12.72;80.00
74675;BME280;63200;48.810;12.352;2022-10-22T07:47:14;97551.75;;;12.79;80.11
74675;BME280;63200;48.810;12.352;2022-10-22T07:49:39;97558.44;;;12.87;79.51
74675;BME280;63200;48.810;12.352;2022-10-22T07:52:05;97559.03;;;12.83;79.78
74675;BME280;63200;48.810;12.352;2022-10-22T07:54:31;97566.00;;;12.90;79.73
74675;BME280;63200;48.810;12.352;2022-10-22T07:56:56;97570.81;;;12.98;79.56
74675;BME280;63200;48.810;12.352;2022-10-22T07:59:21;97563.66;;;13.02;79.17
74675;BME280;63200;48.810;12.352;2022-10-22T08:01:47;97568.09;;;13.12;79.17
74675;BME280;63200;48.810;12.352;2022-10-22T08:04:12;97560.63;;;13.17;78.57
74675;BME280;63200;48.810;12.352;2022-10-22T08:06:37;97557.34;;;13.34;78.48
74675;BME280;63200;48.810;12.352;2022-10-22T08:09:03;97525.09;;;13.42;78.31
74675;BME280;63200;48.810;12.352;2022-10-22T08:11:29;97547.09;;;13.59;77.71
74675;BME280;63200;48.810;12.352;2022-10-22T08:13:55;97513.16;;;13.38;77.26
74675;BME280;63200;48.810;12.352;2022-10-22T08:16:20;97561.97;;;13.67;77.49
74675;BME280;63200;48.810;12.352;2022-10-22T08:18:45;97564.69;;;13.81;77.14
74675;BME280;63200;48.810;12.352;2022-10-22T08:21:11;97557.00;;;13.83;76.96
74675;BME280;63200;48.810;12.352;2022-10-22T08:23:37;97563.38;;;13.64;77.33
74675;BME280;63200;48.810;12.352;2022-10-22T08:26:03;97574.06;;;13.47;76.98
74675;BME280;63200;48.810;12.352;2022-10-22T08:28:29;97569.16;;;13.30;77.52
74675;BME280;63200;48.810;12.352;2022-10-22T08:30:57;97567.78;;;13.46;77.13
74675;BME280;63200;48.810;12.352;2022-10-22T08:33:22;97544.75;;;13.39;77.23
74675;BME280;63200;48.810;12.352;2022-10-22T08:35:48;97583.28;;;13.65;77.13
74675;BME280;63200;48.810;12.352;2022-10-22T08:38:14;97582.97;;;13.66;76.79
74675;BME280;63200;48.810;12.352;2022-10-22T08:40:39;97539.72;;;13.46;76.73
74675;BME280;63200;48.810;12.352;2022-10-22T08:46:07;97554.38;;;13.50;75.57
74675;BME280;63200;48.810;12.352;2022-10-22T08:51:02;97591.31;;;13.42;75.09
74675;BME280;63200;48.810;12.352;2022-10-22T08:53:39;97594.97;;;13.52;75.74
74675;BME280;63200;48.810;12.352;2022-10-22T08:56:06;97576.34;;;13.26;75.86
74675;BME280;63200;48.810;12.352;2022-10-22T08:58:43;97601.06;;;13.62;75.97
74675;BME280;63200;48.810;12.352;2022-10-22T09:01:13;97600.16;;;13.67;75.74
74675;BME280;63200;48.810;12.352;2022-10-22T09:06:32;97591.56;;;13.74;74.26
74675;BME280;63200;48.810;12.352;2022-10-22T09:09:00;97593.91;;;13.80;74.18
74675;BME280;63200;48.810;12.352;2022-10-22T09:11:32;97603.09;;;13.85;74.00
74675;BME280;63200;48.810;12.352;2022-10-22T09:13:59;97607.94;;;13.88;74.56
74675;BME280;63200;48.810;12.352;2022-10-22T09:24:53;97617.34;;;13.81;74.06
74675;BME280;63200;48.810;12.352;2022-10-22T09:27:24;97616.34;;;13.77;74.57
74675;BME280;63200;48.810;12.352;2022-10-22T09:29:50;97620.28;;;13.71;74.06
74675;BME280;63200;48.810;12.352;2022-10-22T09:32:16;97614.81;;;13.71;73.85
74675;BME280;63200;48.810;12.352;2022-10-22T09:34:46;97619.56;;;13.79;73.86
74675;BME280;63200;48.810;12.352;2022-10-22T09:37:18;97616.66;;;13.90;74.32
74675;BME280;63200;48.810;12.352;2022-10-22T09:39:50;97616.03;;;13.79;74.00
74675;BME280;63200;48.810;12.352;2022-10-22T09:42:17;97632.91;;;13.81;73.81
74675;BME280;63200;48.810;12.352;2022-10-22T09:44:51;97640.28;;;13.80;73.99
74675;BME280;63200;48.810;12.352;2022-10-22T09:47:39;97643.84;;;13.95;74.62
74675;BME280;63200;48.810;12.352;2022-10-22T09:55:38;97665.88;;;13.85;73.98
74675;BME280;63200;48.810;12.352;2022-10-22T09:58:03;97635.72;;;13.76;73.40
74675;BME280;63200;48.810;12.352;2022-10-22T10:00:29;97636.47;;;13.81;74.13
74675;BME280;63200;48.810;12.352;2022-10-22T10:02:56;97641.69;;;13.78;73.57
74675;BME280;63200;48.810;12.352;2022-10-22T10:05:33;97655.28;;;14.11;73.74
74675;BME280;63200;48.810;12.352;2022-10-22T10:08:13;97658.50;;;14.13;73.54
74675;BME280;63200;48.810;12.352;2022-10-22T10:10:55;97630.38;;;14.12;72.75
74675;BME280;63200;48.810;12.352;2022-10-22T10:19:35;97659.41;;;14.08;73.25
74675;BME280;63200;48.810;12.352;2022-10-22T10:25:13;97662.84;;;14.00;72.73
74675;BME280;63200;48.810;12.352;2022-10-22T10:27:43;97664.97;;;14.03;72.90
74675;BME280;63200;48.810;12.352;2022-10-22T10:30:19;97668.22;;;14.05;72.71
74675;BME280;63200;48.810;12.352;2022-10-22T10:35:28;97619.47;;;13.71;72.92
74675;BME280;63200;48.810;12.352;2022-10-22T10:40:47;97663.13;;;14.40;72.90
74675;BME280;63200;48.810;12.352;2022-10-22T10:43:28;97653.16;;;14.36;72.24
74675;BME280;63200;48.810;12.352;2022-10-22T10:48:31;97671.22;;;14.45;71.17
74675;BME280;63200;48.810;12.352;2022-10-22T10:57:09;97649.66;;;14.58;71.91
74675;BME280;63200;48.810;12.352;2022-10-22T11:06:18;97654.75;;;14.37;71.22
74675;BME280;63200;48.810;12.352;2022-10-22T11:08:19;97647.84;;;14.67;71.89
74675;BME280;63200;48.810;12.352;2022-10-22T11:10:47;97647.94;;;14.76;71.91
74675;BME280;63200;48.810;12.352;2022-10-22T11:13:33;97640.41;;;14.81;70.63
74675;BME280;63200;48.810;12.352;2022-10-22T11:16:39;97649.59;;;14.99;69.88
74675;BME280;63200;48.810;12.352;2022-10-22T11:19:25;97641.31;;;15.59;69.61
74675;BME280;63200;48.810;12.352;2022-10-22T11:25:20;97642.25;;;16.17;67.60
74675;BME280;63200;48.810;12.352;2022-10-22T11:28:02;97651.78;;;15.88;66.37
74675;BME280;63200;48.810;12.352;2022-10-22T11:30:33;97609.38;;;16.17;66.23
74675;BME280;63200;48.810;12.352;2022-10-22T11:33:03;97640.63;;;16.91;63.78
74675;BME280;63200;48.810;12.352;2022-10-22T11:35:35;97641.75;;;16.99;62.12
74675;BME280;63200;48.810;12.352;2022-10-22T11:38:04;97642.78;;;16.45;63.51
74675;BME280;63200;48.810;12.352;2022-10-22T11:40:39;97643.75;;;16.49;64.12
74675;BME280;63200;48.810;12.352;2022-10-22T11:43:10;97637.38;;;16.05;65.62
74675;BME280;63200;48.810;12.352;2022-10-22T11:45:58;97642.31;;;15.94;65.71
74675;BME280;63200;48.810;12.352;2022-10-22T11:48:27;97633.13;;;15.68;65.66
74675;BME280;63200;48.810;12.352;2022-10-22T11:50:57;97636.69;;;15.68;65.79
74675;BME280;63200;48.810;12.352;2022-10-22T11:53:32;97637.31;;;16.45;63.89
74675;BME280;63200;48.810;12.352;2022-10-22T11:56:22;97642.56;;;16.99;62.74
74675;BME280;63200;48.810;12.352;2022-10-22T11:58:48;97606.56;;;17.27;62.62
74675;BME280;63200;48.810;12.352;2022-10-22T12:01:40;97636.75;;;17.19;61.71
74675;BME280;63200;48.810;12.352;2022-10-22T12:04:20;97629.63;;;16.82;63.06
74675;BME280;63200;48.810;12.352;2022-10-22T12:06:59;97630.91;;;16.85;63.43
74675;BME280;63200;48.810;12.352;2022-10-22T12:09:27;97609.59;;;16.47;63.25
74675;BME280;63200;48.810;12.352;2022-10-22T12:12:18;97626.34;;;16.37;64.19
74675;BME280;63200;48.810;12.352;2022-10-22T12:14:55;97627.47;;;16.36;65.34
74675;BME280;63200;48.810;12.352;2022-10-22T12:17:22;97631.72;;;16.59;64.56
74675;BME280;63200;48.810;12.352;2022-10-22T12:22:21;97620.84;;;18.15;59.13
74675;BME280;63200;48.810;12.352;2022-10-22T12:24:50;97621.97;;;17.67;61.33
74675;BME280;63200;48.810;12.352;2022-10-22T12:27:24;97626.25;;;17.86;60.24
74675;BME280;63200;48.810;12.352;2022-10-22T12:29:55;97613.69;;;18.23;59.37
74675;BME280;63200;48.810;12.352;2022-10-22T12:32:22;97617.53;;;17.92;61.41
74675;BME280;63200;48.810;12.352;2022-10-22T12:34:50;97613.38;;;17.77;60.73
74675;BME280;63200;48.810;12.352;2022-10-22T12:37:17;97585.94;;;17.12;62.03
74675;BME280;63200;48.810;12.352;2022-10-22T12:39:44;97608.03;;;17.16;63.62
74675;BME280;63200;48.810;12.352;2022-10-22T12:42:15;97604.63;;;17.19;63.44
74675;BME280;63200;48.810;12.352;2022-10-22T12:44:42;97613.03;;;17.23;63.73
74675;BME280;63200;48.810;12.352;2022-10-22T12:47:14;97612.06;;;17.01;65.80
74675;BME280;63200;48.810;12.352;2022-10-22T12:49:43;97613.00;;;16.61;65.03
74675;BME280;63200;48.810;12.352;2022-10-22T12:52:15;97603.00;;;16.74;65.46
74675;BME280;63200;48.810;12.352;2022-10-22T12:54:47;97609.59;;;17.43;64.62
74675;BME280;63200;48.810;12.352;2022-10-22T12:57:16;97611.81;;;17.59;63.77
74675;BME280;63200;48.810;12.352;2022-10-22T12:59:45;97606.53;;;18.31;62.51
74675;BME280;63200;48.810;12.352;2022-10-22T13:02:18;97600.56;;;18.29;61.34
74675;BME280;63200;48.810;12.352;2022-10-22T13:05:24;97609.31;;;18.22;60.09
74675;BME280;63200;48.810;12.352;2022-10-22T13:08:08;97614.16;;;17.95;60.72
74675;BME280;63200;48.810;12.352;2022-10-22T13:10:39;97606.13;;;17.73;61.22
74675;BME280;63200;48.810;12.352;2022-10-22T13:13:05;97611.03;;;17.49;62.07
74675;BME280;63200;48.810;12.352;2022-10-22T13:18:19;97603.47;;;17.29;62.13
74675;BME280;63200;48.810;12.352;2022-10-22T13:20:53;97602.91;;;17.62;62.51
74675;BME280;63200;48.810;12.352;2022-10-22T13:23:21;97595.28;;;18.15;61.64
74675;BME280;63200;48.810;12.352;2022-10-22T13:26:03;97600.81;;;18.66;59.95
74675;BME280;63200;48.810;12.352;2022-10-22T13:28:33;97597.25;;;18.87;58.26
74675;BME280;63200;48.810;12.352;2022-10-22T13:31:01;97605.91;;;18.55;58.63
74675;BME280;63200;48.810;12.352;2022-10-22T13:33:40;97602.09;;;18.39;58.48
74675;BME280;63200;48.810;12.352;2022-10-22T13:36:12;97605.91;;;18.55;58.53
74675;BME280;63200;48.810;12.352;2022-10-22T13:38:38;97605.75;;;18.52;58.57
74675;BME280;63200;48.810;12.352;2022-10-22T13:41:03;97572.53;;;18.36;57.72
74675;BME280;63200;48.810;12.352;2022-10-22T13:43:29;97610.72;;;17.90;59.77
74675;BME280;63200;48.810;12.352;2022-10-22T13:45:57;97610.00;;;17.72;60.32
74675;BME280;63200;48.810;12.352;2022-10-22T13:48:24;97613.91;;;17.62;60.19
74675;BME280;63200;48.810;12.352;2022-10-22T13:50:51;97610.25;;;17.49;61.42
74675;BME280;63200;48.810;12.352;2022-10-22T13:53:20;97603.19;;;17.22;61.64
74675;BME280;63200;48.810;12.352;2022-10-22T13:55:46;97601.22;;;17.31;62.49
74675;BME280;63200;48.810;12.352;2022-10-22T13:58:20;97603.19;;;17.30;62.30
74675;BME280;63200;48.810;12.352;2022-10-22T14:00:50;97588.34;;;17.23;62.41
74675;BME280;63200;48.810;12.352;2022-10-22T14:03:19;97617.06;;;17.08;62.86
74675;BME280;63200;48.810;12.352;2022-10-22T14:05:46;97611.41;;;16.78;63.50
74675;BME280;63200;48.810;12.352;2022-10-22T14:08:14;97607.03;;;16.59;64.13
74675;BME280;63200;48.810;12.352;2022-10-22T14:10:41;97610.56;;;16.42;63.96
74675;BME280;63200;48.810;12.352;2022-10-22T14:13:09;97605.41;;;16.41;63.77
74675;BME280;63200;48.810;12.352;2022-10-22T14:15:35;97607.31;;;16.31;63.46
74675;BME280;63200;48.810;12.352;2022-10-22T14:18:02;97613.59;;;16.32;63.90
74675;BME280;63200;48.810;12.352;2022-10-22T14:20:30;97609.41;;;16.35;64.26
74675;BME280;63200;48.810;12.352;2022-10-22T14:23:02;97609.28;;;16.75;64.23
74675;BME280;63200;48.810;12.352;2022-10-22T14:25:29;97608.34;;;16.79;63.24